sensor_id;sensor_type;location;lat;lon;timestamp;pressure;altitude;pressure_sealevel;temperature;humidity
46448;BME280;32145;50.390;30.778;2023-07-20T00:00:03;99460.25;;;15.37;66.26
46448;BME280;32145;50.390;30.778;2023-07-20T00:03:09;99450.38;;;15.36;66.63
46448;BME280;32145;50.390;30.778;2023-07-20T00:06:06;99447.41;;;15.32;66.70
46448;BME280;32145;50.390;30.778;2023-07-20T00:09:03;99452.31;;;15.25;66.58
46448;BME280;32145;50.390;30.778;2023-07-20T00:11:59;99446.34;;;15.23;66.88
46448;BME280;32145;50.390;30.778;2023-07-20T00:14:55;99443.03;;;15.26;67.30
46448;BME280;32145;50.390;30.778;2023-07-20T00:17:51;99448.50;;;15.26;67.06
46448;BME280;32145;50.390;30.778;2023-07-20T00:20:47;99439.78;;;15.24;66.73
46448;BME280;32145;50.390;30.778;2023-07-20T00:23:43;99443.59;;;15.23;66.66
46448;BME280;32145;50.390;30.778;2023-07-20T00:26:40;99449.06;;;15.18;66.87
46448;BME280;32145;50.390;30.778;2023-07-20T00:29:34;99444.44;;;15.13;66.68
46448;BME280;32145;50.390;30.778;2023-07-20T00:32:28;99444.69;;;15.06;66.81
46448;BME280;32145;50.390;30.778;2023-07-20T00:35:22;99434.88;;;15.05;66.65
46448;BME280;32145;50.390;30.778;2023-07-20T00:38:16;99442.25;;;15.05;67.04
46448;BME280;32145;50.390;30.778;2023-07-20T00:41:10;99442.25;;;15.05;67.36
46448;BME280;32145;50.390;30.778;2023-07-20T00:44:05;99448.25;;;15.02;67.03
46448;BME280;32145;50.390;30.778;2023-07-20T00:46:59;99439.53;;;15.00;67.09
46448;BME280;32145;50.390;30.778;2023-07-20T00:49:53;99443.09;;;14.95;66.54
46448;BME280;32145;50.390;30.778;2023-07-20T00:52:47;99443.63;;;14.92;67.28
46448;BME280;32145;50.390;30.778;2023-07-20T00:55:42;99448.25;;;14.91;67.54
46448;BME280;32145;50.390;30.778;2023-07-20T00:58:36;99443.09;;;14.95;67.93
46448;BME280;32145;50.390;30.778;2023-07-20T01:01:31;99448.53;;;14.95;67.65
46448;BME280;32145;50.390;30.778;2023-07-20T01:04:26;99438.72;;;14.89;67.16
46448;BME280;32145;50.390;30.778;2023-07-20T01:07:23;99448.00;;;14.88;67.68
46448;BME280;32145;50.390;30.778;2023-07-20T01:10:20;99441.19;;;14.85;67.54
46448;BME280;32145;50.390;30.778;2023-07-20T01:13:16;99436.53;;;14.80;67.27
46448;BME280;32145;50.390;30.778;2023-07-20T01:16:11;99448.81;;;14.78;67.32
46448;BME280;32145;50.390;30.778;2023-07-20T01:19:06;99449.59;;;14.73;67.82
46448;BME280;32145;50.390;30.778;2023-07-20T01:22:02;99452.84;;;14.70;68.04
46448;BME280;32145;50.390;30.778;2023-07-20T01:25:03;99451.75;;;14.66;68.00
46448;BME280;32145;50.390;30.778;2023-07-20T01:28:13;99451.75;;;14.66;68.38
46448;BME280;32145;50.390;30.778;2023-07-20T01:31:17;99442.50;;;14.67;67.92
46448;BME280;32145;50.390;30.778;2023-07-20T01:34:13;99444.41;;;14.66;68.05
46448;BME280;32145;50.390;30.778;2023-07-20T01:37:09;99443.31;;;14.67;68.02
46448;BME280;32145;50.390;30.778;2023-07-20T01:40:04;99442.50;;;14.67;68.26
46448;BME280;32145;50.390;30.778;2023-07-20T01:42:58;99444.13;;;14.63;67.80
46448;BME280;32145;50.390;30.778;2023-07-20T01:45:54;99441.94;;;14.60;68.09
46448;BME280;32145;50.390;30.778;2023-07-20T01:48:51;99442.22;;;14.58;67.90
46448;BME280;32145;50.390;30.778;2023-07-20T01:51:45;99444.69;;;14.60;68.58
46448;BME280;32145;50.390;30.778;2023-07-20T01:54:39;99443.31;;;14.57;68.07
46448;BME280;32145;50.390;30.778;2023-07-20T01:57:33;99441.13;;;14.54;68.07
46448;BME280;32145;50.390;30.778;2023-07-20T02:00:27;99445.75;;;14.53;67.96
46448;BME280;32145;50.390;30.778;2023-07-20T02:03:21;99438.66;;;14.52;68.44
46448;BME280;32145;50.390;30.778;2023-07-20T02:06:16;99440.56;;;14.52;68.35
46448;BME280;32145;50.390;30.778;2023-07-20T02:09:10;99443.56;;;14.50;68.01
46448;BME280;32145;50.390;30.778;2023-07-20T02:12:04;99440.28;;;14.48;67.96
46448;BME280;32145;50.390;30.778;2023-07-20T02:14:58;99442.75;;;14.50;67.88
46448;BME280;32145;50.390;30.778;2023-07-20T02:17:54;99439.75;;;14.51;68.21
46448;BME280;32145;50.390;30.778;2023-07-20T02:20:52;99444.66;;;14.49;68.68
46448;BME280;32145;50.390;30.778;2023-07-20T02:23:37;99450.66;;;14.51;68.38
46448;BME280;32145;50.390;30.778;2023-07-20T02:26:31;99450.94;;;14.55;68.45
46448;BME280;32145;50.390;30.778;2023-07-20T02:29:25;99450.66;;;14.56;68.41
46448;BME280;32145;50.390;30.778;2023-07-20T02:32:19;99455.31;;;14.61;68.55
46448;BME280;32145;50.390;30.778;2023-07-20T02:35:13;99446.31;;;14.66;68.58
46448;BME280;32145;50.390;30.778;2023-07-20T02:38:08;99452.84;;;14.70;68.21
46448;BME280;32145;50.390;30.778;2023-07-20T02:41:03;99451.22;;;14.74;68.11
46448;BME280;32145;50.390;30.778;2023-07-20T02:43:57;99457.78;;;14.78;68.41
46448;BME280;32145;50.390;30.778;2023-07-20T02:46:51;99454.00;;;14.85;68.14
46448;BME280;32145;50.390;30.778;2023-07-20T02:49:45;99446.34;;;14.92;68.58
46448;BME280;32145;50.390;30.778;2023-07-20T02:52:39;99450.44;;;15.00;68.50
46448;BME280;32145;50.390;30.778;2023-07-20T02:55:33;99448.53;;;15.05;68.15
46448;BME280;32145;50.390;30.778;2023-07-20T02:58:28;99448.25;;;15.12;68.20
46448;BME280;32145;50.390;30.778;2023-07-20T03:01:22;99444.69;;;15.17;67.61
46448;BME280;32145;50.390;30.778;2023-07-20T03:04:16;99443.59;;;15.23;67.60
46448;BME280;32145;50.390;30.778;2023-07-20T03:07:10;99446.03;;;15.30;67.28
46448;BME280;32145;50.390;30.778;2023-07-20T03:10:04;99447.94;;;15.40;67.36
46448;BME280;32145;50.390;30.778;2023-07-20T03:12:59;99450.94;;;15.49;67.62
46448;BME280;32145;50.390;30.778;2023-07-20T03:15:54;99448.44;;;15.57;67.57
46448;BME280;32145;50.390;30.778;2023-07-20T03:18:48;99448.97;;;15.65;67.30
46448;BME280;32145;50.390;30.778;2023-07-20T03:21:42;99448.66;;;15.71;67.01
46448;BME280;32145;50.390;30.778;2023-07-20T03:24:36;99451.66;;;15.80;66.88
46448;BME280;32145;50.390;30.778;2023-07-20T03:27:30;99449.97;;;15.90;66.83
46448;BME280;32145;50.390;30.778;2023-07-20T03:30:24;99446.13;;;16.01;66.98
46448;BME280;32145;50.390;30.778;2023-07-20T03:33:19;99453.16;;;16.13;67.03
46448;BME280;32145;50.390;30.778;2023-07-20T03:36:13;99445.44;;;16.25;66.49
46448;BME280;32145;50.390;30.778;2023-07-20T03:39:07;99444.25;;;16.42;65.87
46448;BME280;32145;50.390;30.778;2023-07-20T03:42:01;99443.63;;;16.55;65.87
46448;BME280;32145;50.390;30.778;2023-07-20T03:44:57;99442.41;;;16.72;65.61
46448;BME280;32145;50.390;30.778;2023-07-20T03:47:53;99440.97;;;17.44;65.07
46448;BME280;32145;50.390;30.778;2023-07-20T03:50:50;99459.19;;;18.47;64.93
46448;BME280;32145;50.390;30.778;2023-07-20T03:53:46;99455.03;;;19.35;64.13
46448;BME280;32145;50.390;30.778;2023-07-20T03:56:42;99450.50;;;20.01;62.11
46448;BME280;32145;50.390;30.778;2023-07-20T03:59:38;99453.56;;;20.50;60.32
46448;BME280;32145;50.390;30.778;2023-07-20T04:02:34;99447.50;;;20.85;58.92
46448;BME280;32145;50.390;30.778;2023-07-20T04:05:30;99456.88;;;21.07;57.72
46448;BME280;32145;50.390;30.778;2023-07-20T04:08:28;99443.69;;;21.18;56.94
46448;BME280;32145;50.390;30.778;2023-07-20T04:11:24;99449.50;;;21.16;56.63
46448;BME280;32145;50.390;30.778;2023-07-20T04:14:18;99439.50;;;20.97;56.31
46448;BME280;32145;50.390;30.778;2023-07-20T04:17:12;99445.72;;;20.66;56.20
46448;BME280;32145;50.390;30.778;2023-07-20T04:20:08;99451.66;;;20.37;56.21
46448;BME280;32145;50.390;30.778;2023-07-20T04:23:04;99451.19;;;20.20;56.50
46448;BME280;32145;50.390;30.778;2023-07-20T04:25:59;99452.41;;;20.14;56.66
46448;BME280;32145;50.390;30.778;2023-07-20T04:28:53;99456.28;;;20.13;56.95
46448;BME280;32145;50.390;30.778;2023-07-20T04:31:47;99452.22;;;20.11;57.28
46448;BME280;32145;50.390;30.778;2023-07-20T04:34:41;99448.16;;;20.08;57.09
46448;BME280;32145;50.390;30.778;2023-07-20T04:37:34;99451.72;;;20.08;57.33
46448;BME280;32145;50.390;30.778;2023-07-20T04:40:28;99448.88;;;20.14;57.34
46448;BME280;32145;50.390;30.778;2023-07-20T04:43:24;99444.03;;;20.19;57.28
46448;BME280;32145;50.390;30.778;2023-07-20T04:46:18;99443.41;;;20.22;57.21
46448;BME280;32145;50.390;30.778;2023-07-20T04:49:12;99448.19;;;20.31;57.22
46448;BME280;32145;50.390;30.778;2023-07-20T04:52:06;99452.56;;;20.46;56.94
46448;BME280;32145;50.390;30.778;2023-07-20T04:55:00;99451.84;;;20.63;56.36
46448;BME280;32145;50.390;30.778;2023-07-20T04:57:54;99458.66;;;20.80;55.99
46448;BME280;32145;50.390;30.778;2023-07-20T05:00:51;99448.38;;;20.94;55.61
46448;BME280;32145;50.390;30.778;2023-07-20T05:03:47;99453.03;;;21.08;55.48
46448;BME280;32145;50.390;30.778;2023-07-20T05:06:43;99446.56;;;21.12;55.55
46448;BME280;32145;50.390;30.778;2023-07-20T05:09:39;99443.69;;;21.18;55.32
46448;BME280;32145;50.390;30.778;2023-07-20T05:12:35;99443.44;;;21.05;55.79
46448;BME280;32145;50.390;30.778;2023-07-20T05:15:29;99445.63;;;20.94;56.20
46448;BME280;32145;50.390;30.778;2023-07-20T05:18:24;99447.16;;;21.01;55.82
46448;BME280;32145;50.390;30.778;2023-07-20T05:21:20;99446.59;;;21.21;55.62
46448;BME280;32145;50.390;30.778;2023-07-20T05:24:16;99448.28;;;21.31;55.52
46448;BME280;32145;50.390;30.778;2023-07-20T05:27:10;99443.28;;;21.42;55.36
46448;BME280;32145;50.390;30.778;2023-07-20T05:30:04;99434.13;;;21.56;54.85
46448;BME280;32145;50.390;30.778;2023-07-20T05:33:00;99435.94;;;21.69;54.50
46448;BME280;32145;50.390;30.778;2023-07-20T05:35:59;99436.03;;;21.87;54.34
46448;BME280;32145;50.390;30.778;2023-07-20T05:38:54;99432.50;;;21.95;54.23
46448;BME280;32145;50.390;30.778;2023-07-20T05:41:51;99430.19;;;21.97;54.15
46448;BME280;32145;50.390;30.778;2023-07-20T05:44:47;99429.09;;;22.07;53.91
46448;BME280;32145;50.390;30.778;2023-07-20T05:47:41;99428.78;;;22.18;53.73
46448;BME280;32145;50.390;30.778;2023-07-20T05:50:35;99425.88;;;22.32;53.50
46448;BME280;32145;50.390;30.778;2023-07-20T05:53:30;99420.38;;;22.40;53.20
46448;BME280;32145;50.390;30.778;2023-07-20T05:56:24;99425.72;;;22.55;52.91
46448;BME280;32145;50.390;30.778;2023-07-20T05:59:20;99422.81;;;22.60;52.49
46448;BME280;32145;50.390;30.778;2023-07-20T06:02:16;99421.19;;;22.59;51.49
46448;BME280;32145;50.390;30.778;2023-07-20T06:05:12;99427.03;;;22.57;51.75
46448;BME280;32145;50.390;30.778;2023-07-20T06:08:08;99428.00;;;22.70;51.54
46448;BME280;32145;50.390;30.778;2023-07-20T06:11:05;99420.97;;;22.82;51.27
46448;BME280;32145;50.390;30.778;2023-07-20T06:14:02;99429.09;;;22.96;50.90
46448;BME280;32145;50.390;30.778;2023-07-20T06:16:57;99427.91;;;23.05;50.68
46448;BME280;32145;50.390;30.778;2023-07-20T06:19:51;99436.19;;;23.14;50.32
46448;BME280;32145;50.390;30.778;2023-07-20T06:22:45;99428.53;;;23.20;49.42
46448;BME280;32145;50.390;30.778;2023-07-20T06:25:41;99430.16;;;23.21;49.16
46448;BME280;32145;50.390;30.778;2023-07-20T06:28:38;99431.47;;;23.24;49.27
46448;BME280;32145;50.390;30.778;2023-07-20T06:31:32;99422.50;;;23.36;49.68
46448;BME280;32145;50.390;30.778;2023-07-20T06:34:26;99414.81;;;23.50;48.98
46448;BME280;32145;50.390;30.778;2023-07-20T06:37:20;99411.50;;;23.57;48.74
46448;BME280;32145;50.390;30.778;2023-07-20T06:40:08;99416.31;;;23.69;48.71
46448;BME280;32145;50.390;30.778;2023-07-20T06:43:04;99415.50;;;23.77;48.11
46448;BME280;32145;50.390;30.778;2023-07-20T06:46:02;99420.00;;;23.82;47.93
46448;BME280;32145;50.390;30.778;2023-07-20T06:48:58;99413.94;;;23.89;47.36
46448;BME280;32145;50.390;30.778;2023-07-20T06:51:52;99424.22;;;23.88;43.40
46448;BME280;32145;50.390;30.778;2023-07-20T06:54:46;99429.75;;;23.88;45.48
46448;BME280;32145;50.390;30.778;2023-07-20T06:57:42;99429.22;;;23.95;45.69
46448;BME280;32145;50.390;30.778;2023-07-20T07:00:38;99430.09;;;24.08;43.69
46448;BME280;32145;50.390;30.778;2023-07-20T07:03:35;99430.91;;;24.08;44.28
46448;BME280;32145;50.390;30.778;2023-07-20T07:06:31;99433.81;;;24.21;44.65
46448;BME280;32145;50.390;30.778;2023-07-20T07:09:27;99431.56;;;24.36;44.32
46448;BME280;32145;50.390;30.778;2023-07-20T07:12:23;99430.47;;;24.49;44.18
46448;BME280;32145;50.390;30.778;2023-07-20T07:15:19;99431.88;;;24.55;43.93
46448;BME280;32145;50.390;30.778;2023-07-20T07:18:15;99427.09;;;24.65;43.71
46448;BME280;32145;50.390;30.778;2023-07-20T07:21:13;99432.69;;;24.77;43.88
46448;BME280;32145;50.390;30.778;2023-07-20T07:24:09;99429.50;;;24.88;43.71
46448;BME280;32145;50.390;30.778;2023-07-20T07:27:05;99421.19;;;25.00;43.57
46448;BME280;32145;50.390;30.778;2023-07-20T07:30:01;99423.88;;;25.09;43.16
46448;BME280;32145;50.390;30.778;2023-07-20T07:32:57;99428.66;;;25.08;42.79
46448;BME280;32145;50.390;30.778;2023-07-20T07:35:53;99425.38;;;25.06;41.08
46448;BME280;32145;50.390;30.778;2023-07-20T07:38:50;99426.06;;;25.03;40.78
46448;BME280;32145;50.390;30.778;2023-07-20T07:41:46;99417.63;;;24.66;38.76
46448;BME280;32145;50.390;30.778;2023-07-20T07:44:42;99423.44;;;24.73;40.61
46448;BME280;32145;50.390;30.778;2023-07-20T07:47:38;99418.56;;;25.04;41.58
46448;BME280;32145;50.390;30.778;2023-07-20T07:50:32;99412.47;;;25.23;39.76
46448;BME280;32145;50.390;30.778;2023-07-20T07:53:26;99409.34;;;25.25;40.95
46448;BME280;32145;50.390;30.778;2023-07-20T07:56:24;99414.00;;;25.45;41.29
46448;BME280;32145;50.390;30.778;2023-07-20T07:59:20;99407.09;;;25.64;41.20
46448;BME280;32145;50.390;30.778;2023-07-20T08:02:16;99410.91;;;25.72;39.77
46448;BME280;32145;50.390;30.778;2023-07-20T08:05:12;99403.72;;;25.71;40.66
46448;BME280;32145;50.390;30.778;2023-07-20T08:08:08;99398.53;;;25.69;39.05
46448;BME280;32145;50.390;30.778;2023-07-20T08:11:04;99407.78;;;25.73;40.00
46448;BME280;32145;50.390;30.778;2023-07-20T08:14:02;99407.19;;;25.68;39.08
46448;BME280;32145;50.390;30.778;2023-07-20T08:16:58;99405.34;;;25.72;39.53
46448;BME280;32145;50.390;30.778;2023-07-20T08:19:53;99406.03;;;25.94;39.75
46448;BME280;32145;50.390;30.778;2023-07-20T08:22:50;99411.56;;;26.06;39.88
46448;BME280;32145;50.390;30.778;2023-07-20T08:25:43;99411.66;;;26.22;39.27
46448;BME280;32145;50.390;30.778;2023-07-20T08:28:38;99418.69;;;26.32;39.24
46448;BME280;32145;50.390;30.778;2023-07-20T08:31:35;99416.13;;;26.40;39.09
46448;BME280;32145;50.390;30.778;2023-07-20T08:34:31;99414.06;;;26.36;37.59
46448;BME280;32145;50.390;30.778;2023-07-20T08:37:27;99401.88;;;26.41;38.71
46448;BME280;32145;50.390;30.778;2023-07-20T08:40:23;99394.09;;;26.47;38.92
46448;BME280;32145;50.390;30.778;2023-07-20T08:43:20;99390.16;;;26.48;38.23
46448;BME280;32145;50.390;30.778;2023-07-20T08:46:16;99388.53;;;26.47;38.72
46448;BME280;32145;50.390;30.778;2023-07-20T08:49:13;99392.44;;;26.58;38.61
46448;BME280;32145;50.390;30.778;2023-07-20T08:52:11;99394.09;;;26.75;38.62
46448;BME280;32145;50.390;30.778;2023-07-20T08:55:07;99397.69;;;26.76;38.44
46448;BME280;32145;50.390;30.778;2023-07-20T08:58:04;99393.38;;;26.95;38.57
46448;BME280;32145;50.390;30.778;2023-07-20T09:01:01;99387.06;;;27.10;38.41
46448;BME280;32145;50.390;30.778;2023-07-20T09:03:55;99395.53;;;27.14;38.11
46448;BME280;32145;50.390;30.778;2023-07-20T09:06:52;99389.13;;;27.13;37.52
46448;BME280;32145;50.390;30.778;2023-07-20T09:09:46;99385.63;;;27.17;37.61
46448;BME280;32145;50.390;30.778;2023-07-20T09:12:41;99381.50;;;27.10;36.78
46448;BME280;32145;50.390;30.778;2023-07-20T09:15:37;99378.00;;;27.13;37.10
46448;BME280;32145;50.390;30.778;2023-07-20T09:18:33;99371.81;;;27.36;37.02
46448;BME280;32145;50.390;30.778;2023-07-20T09:21:29;99370.16;;;27.51;37.14
46448;BME280;32145;50.390;30.778;2023-07-20T09:24:28;99365.34;;;27.64;36.83
46448;BME280;32145;50.390;30.778;2023-07-20T09:27:29;99362.44;;;27.77;36.72
46448;BME280;32145;50.390;30.778;2023-07-20T09:30:25;99370.78;;;27.77;36.13
46448;BME280;32145;50.390;30.778;2023-07-20T09:33:21;99361.88;;;27.87;36.43
46448;BME280;32145;50.390;30.778;2023-07-20T09:36:16;99361.22;;;27.94;36.35
46448;BME280;32145;50.390;30.778;2023-07-20T09:39:10;99355.28;;;27.96;34.85
46448;BME280;32145;50.390;30.778;2023-07-20T09:42:07;99363.03;;;27.86;35.88
46448;BME280;32145;50.390;30.778;2023-07-20T09:45:03;99360.41;;;27.94;36.07
46448;BME280;32145;50.390;30.778;2023-07-20T09:48:03;99355.31;;;27.79;35.54
46448;BME280;32145;50.390;30.778;2023-07-20T09:51:00;99360.41;;;27.41;34.67
46448;BME280;32145;50.390;30.778;2023-07-20T09:53:57;99368.84;;;27.29;35.57
46448;BME280;32145;50.390;30.778;2023-07-20T09:56:53;99364.25;;;27.53;35.76
46448;BME280;32145;50.390;30.778;2023-07-20T09:59:51;99356.53;;;27.62;35.57
46448;BME280;32145;50.390;30.778;2023-07-20T10:02:47;99363.59;;;27.76;35.75
46448;BME280;32145;50.390;30.778;2023-07-20T10:05:47;99356.84;;;27.61;34.16
46448;BME280;32145;50.390;30.778;2023-07-20T10:08:45;99351.34;;;27.45;36.06
46448;BME280;32145;50.390;30.778;2023-07-20T10:11:45;99345.78;;;27.28;35.74
46448;BME280;32145;50.390;30.778;2023-07-20T10:14:44;99340.94;;;27.09;36.35
46448;BME280;32145;50.390;30.778;2023-07-20T10:17:46;99348.50;;;27.25;35.76
46448;BME280;32145;50.390;30.778;2023-07-20T10:20:41;99335.16;;;27.66;36.06
46448;BME280;32145;50.390;30.778;2023-07-20T10:23:37;99333.44;;;27.98;36.18
46448;BME280;32145;50.390;30.778;2023-07-20T10:26:34;99335.56;;;28.04;33.58
46448;BME280;32145;50.390;30.778;2023-07-20T10:29:30;99344.28;;;27.83;34.81
46448;BME280;32145;50.390;30.778;2023-07-20T10:32:27;99336.94;;;27.75;33.99
46448;BME280;32145;50.390;30.778;2023-07-20T10:35:25;99329.56;;;27.66;35.36
46448;BME280;32145;50.390;30.778;2023-07-20T10:41:33;99317.00;;;27.73;35.34
46448;BME280;32145;50.390;30.778;2023-07-20T10:44:30;99328.44;;;27.87;35.08
46448;BME280;32145;50.390;30.778;2023-07-20T10:47:26;99324.50;;;27.88;34.73
46448;BME280;32145;50.390;30.778;2023-07-20T10:50:22;99333.59;;;28.05;35.19
46448;BME280;32145;50.390;30.778;2023-07-20T10:53:19;99311.44;;;28.12;34.76
46448;BME280;32145;50.390;30.778;2023-07-20T10:56:22;99298.09;;;28.22;35.25
46448;BME280;32145;50.390;30.778;2023-07-20T10:59:19;99296.19;;;28.06;32.88
46448;BME280;32145;50.390;30.778;2023-07-20T11:02:17;99295.59;;;28.16;33.42
46448;BME280;32145;50.390;30.778;2023-07-20T11:08:40;99289.72;;;28.41;33.80
46448;BME280;32145;50.390;30.778;2023-07-20T11:11:35;99282.19;;;28.42;34.20
46448;BME280;32145;50.390;30.778;2023-07-20T11:14:29;99288.94;;;28.41;34.32
46448;BME280;32145;50.390;30.778;2023-07-20T11:17:28;99287.19;;;28.33;32.01
46448;BME280;32145;50.390;30.778;2023-07-20T11:20:22;99285.50;;;28.28;32.59
46448;BME280;32145;50.390;30.778;2023-07-20T11:23:16;99278.16;;;28.20;31.48
46448;BME280;32145;50.390;30.778;2023-07-20T11:26:12;99279.31;;;28.18;32.78
46448;BME280;32145;50.390;30.778;2023-07-20T11:29:06;99284.78;;;28.31;33.48
46448;BME280;32145;50.390;30.778;2023-07-20T11:32:00;99281.09;;;28.47;33.51
46448;BME280;32145;50.390;30.778;2023-07-20T11:34:54;99280.22;;;28.66;33.76
46448;BME280;32145;50.390;30.778;2023-07-20T11:37:48;99274.28;;;28.67;33.77
46448;BME280;32145;50.390;30.778;2023-07-20T11:40:42;99272.88;;;28.81;33.66
46448;BME280;32145;50.390;30.778;2023-07-20T11:43:40;99270.50;;;29.03;33.48
46448;BME280;32145;50.390;30.778;2023-07-20T11:46:36;99271.88;;;29.16;32.65
46448;BME280;32145;50.390;30.778;2023-07-20T11:49:34;99261.78;;;29.08;32.84
46448;BME280;32145;50.390;30.778;2023-07-20T11:52:30;99266.94;;;29.06;32.95
46448;BME280;32145;50.390;30.778;2023-07-20T11:55:27;99258.41;;;29.22;31.90
46448;BME280;32145;50.390;30.778;2023-07-20T11:58:23;99235.59;;;29.43;32.35
46448;BME280;32145;50.390;30.778;2023-07-20T12:01:20;99248.59;;;29.59;32.16
46448;BME280;32145;50.390;30.778;2023-07-20T12:04:16;99224.59;;;29.54;31.43
46448;BME280;32145;50.390;30.778;2023-07-20T12:07:12;99230.81;;;29.44;30.04
46448;BME280;32145;50.390;30.778;2023-07-20T12:10:10;99218.28;;;29.61;31.09
46448;BME280;32145;50.390;30.778;2023-07-20T12:13:06;99224.81;;;29.73;31.45
46448;BME280;32145;50.390;30.778;2023-07-20T12:16:06;99215.94;;;29.63;29.78
46448;BME280;32145;50.390;30.778;2023-07-20T12:19:02;99215.66;;;29.76;30.57
46448;BME280;32145;50.390;30.778;2023-07-20T12:21:57;99208.50;;;29.78;27.87
46448;BME280;32145;50.390;30.778;2023-07-20T12:24:52;99211.28;;;29.75;29.70
46448;BME280;32145;50.390;30.778;2023-07-20T12:27:46;99205.72;;;29.78;29.95
46448;BME280;32145;50.390;30.778;2023-07-20T12:30:42;99200.19;;;29.82;30.79
46448;BME280;32145;50.390;30.778;2023-07-20T12:33:36;99179.16;;;29.57;29.05
46448;BME280;32145;50.390;30.778;2023-07-20T12:36:32;99185.25;;;29.36;29.92
46448;BME280;32145;50.390;30.778;2023-07-20T12:39:26;99171.91;;;29.53;30.36
46448;BME280;32145;50.390;30.778;2023-07-20T12:42:19;99159.59;;;29.54;30.10
46448;BME280;32145;50.390;30.778;2023-07-20T12:45:14;99168.03;;;29.61;30.63
46448;BME280;32145;50.390;30.778;2023-07-20T12:48:08;99170.81;;;29.61;30.49
46448;BME280;32145;50.390;30.778;2023-07-20T12:51:05;99173.25;;;29.36;30.48
46448;BME280;32145;50.390;30.778;2023-07-20T12:54:02;99163.88;;;29.17;30.69
46448;BME280;32145;50.390;30.778;2023-07-20T12:56:52;99165.94;;;29.24;30.80
46448;BME280;32145;50.390;30.778;2023-07-20T12:59:46;99163.00;;;29.43;30.98
46448;BME280;32145;50.390;30.778;2023-07-20T13:02:40;99157.19;;;29.56;30.20
46448;BME280;32145;50.390;30.778;2023-07-20T13:05:34;99156.06;;;29.61;30.96
46448;BME280;32145;50.390;30.778;2023-07-20T13:08:30;99155.50;;;29.82;31.00
46448;BME280;32145;50.390;30.778;2023-07-20T13:11:28;99160.09;;;29.67;30.15
46448;BME280;32145;50.390;30.778;2023-07-20T13:14:22;99160.09;;;29.67;29.37
46448;BME280;32145;50.390;30.778;2023-07-20T13:17:16;99149.47;;;29.45;29.89
46448;BME280;32145;50.390;30.778;2023-07-20T13:20:10;99141.31;;;29.29;30.07
46448;BME280;32145;50.390;30.778;2023-07-20T13:23:04;99136.75;;;29.17;30.59
46448;BME280;32145;50.390;30.778;2023-07-20T13:26:00;99128.38;;;29.17;30.98
46448;BME280;32145;50.390;30.778;2023-07-20T13:28:57;99123.16;;;29.12;31.36
46448;BME280;32145;50.390;30.778;2023-07-20T13:31:52;99121.84;;;29.06;32.05
46448;BME280;32145;50.390;30.778;2023-07-20T13:34:46;99119.47;;;29.04;31.83
46448;BME280;32145;50.390;30.778;2023-07-20T13:37:42;99124.47;;;29.22;31.74
46448;BME280;32145;50.390;30.778;2023-07-20T13:40:38;99122.97;;;29.28;30.11
46448;BME280;32145;50.390;30.778;2023-07-20T13:43:34;99123.00;;;29.32;30.96
46448;BME280;32145;50.390;30.778;2023-07-20T13:46:31;99118.44;;;29.51;31.19
46448;BME280;32145;50.390;30.778;2023-07-20T13:49:27;99116.16;;;29.60;30.09
46448;BME280;32145;50.390;30.778;2023-07-20T13:52:21;99110.69;;;29.71;30.67
46448;BME280;32145;50.390;30.778;2023-07-20T13:55:09;99117.69;;;29.92;30.63
46448;BME280;32145;50.390;30.778;2023-07-20T13:57:59;99103.75;;;29.99;29.98
46448;BME280;32145;50.390;30.778;2023-07-20T14:00:53;99096.97;;;29.96;30.03
46448;BME280;32145;50.390;30.778;2023-07-20T14:03:48;99089.75;;;29.92;30.39
46448;BME280;32145;50.390;30.778;2023-07-20T14:06:43;99085.88;;;29.62;30.09
46448;BME280;32145;50.390;30.778;2023-07-20T14:09:37;99074.28;;;29.60;29.83
46448;BME280;32145;50.390;30.778;2023-07-20T14:12:31;99069.19;;;29.69;30.59
46448;BME280;32145;50.390;30.778;2023-07-20T14:15:25;99066.06;;;29.75;31.25
46448;BME280;32145;50.390;30.778;2023-07-20T14:18:18;99063.66;;;29.77;31.67
46448;BME280;32145;50.390;30.778;2023-07-20T14:21:14;99055.66;;;29.75;31.46
46448;BME280;32145;50.390;30.778;2023-07-20T14:24:08;99052.03;;;29.67;30.84
46448;BME280;32145;50.390;30.778;2023-07-20T14:27:02;99055.16;;;29.62;30.97
46448;BME280;32145;50.390;30.778;2023-07-20T14:29:56;99053.53;;;29.61;31.73
46448;BME280;32145;50.390;30.778;2023-07-20T14:32:52;99055.38;;;29.50;31.97
46448;BME280;32145;50.390;30.778;2023-07-20T14:35:48;99063.53;;;29.28;32.46
46448;BME280;32145;50.390;30.778;2023-07-20T14:38:43;99073.94;;;28.97;32.57
46448;BME280;32145;50.390;30.778;2023-07-20T14:41:37;99068.84;;;28.75;33.19
46448;BME280;32145;50.390;30.778;2023-07-20T14:44:33;99063.00;;;28.57;33.57
46448;BME280;32145;50.390;30.778;2023-07-20T14:47:29;99072.31;;;28.38;33.34
46448;BME280;32145;50.390;30.778;2023-07-20T14:50:25;99072.13;;;28.27;33.98
46448;BME280;32145;50.390;30.778;2023-07-20T14:53:21;99077.97;;;28.22;34.30
46448;BME280;32145;50.390;30.778;2023-07-20T14:56:18;99077.44;;;28.12;34.52
46448;BME280;32145;50.390;30.778;2023-07-20T14:59:14;99085.75;;;28.09;34.76
46448;BME280;32145;50.390;30.778;2023-07-20T15:02:10;99086.00;;;28.00;34.80
46448;BME280;32145;50.390;30.778;2023-07-20T15:05:07;99086.91;;;27.84;35.33
46448;BME280;32145;50.390;30.778;2023-07-20T15:08:03;99079.16;;;27.74;35.61
46448;BME280;32145;50.390;30.778;2023-07-20T15:10:59;99067.03;;;27.62;35.79
46448;BME280;32145;50.390;30.778;2023-07-20T15:13:56;99067.47;;;27.45;36.18
46448;BME280;32145;50.390;30.778;2023-07-20T15:16:52;99074.81;;;27.33;36.59
46448;BME280;32145;50.390;30.778;2023-07-20T15:19:48;99067.03;;;27.23;36.64
46448;BME280;32145;50.390;30.778;2023-07-20T15:22:42;99062.09;;;27.12;36.89